Time;durP1;ratioP1;P1;durP2;ratioP2;P2;SDS_P1;SDS_P2;PMS_P1;PMS_P2;Temp;Humidity;BMP_temperature;BMP_pressure;BME280_temperature;BME280_humidity;BME280_pressure;Samples;Min_cycle;Max_cycle;Signal;HPM_P1;HPM_P2
2023/07/19 00:01:16;;;;;;;0.70;0.57;;;;;;;23.89;43.57;100395.31;4514247;28;20865;-58
2023/07/19 00:03:26;;;;;;;1.52;0.90;;;;;;;23.91;43.63;100395.78;4516979;28;20065;-59
2023/07/19 00:05:37;;;;;;;0.75;0.70;;;;;;;23.86;43.28;100378.81;4497351;28;20046;-58
2023/07/19 00:07:47;;;;;;;0.80;0.80;;;;;;;23.94;43.88;100386.31;4514013;28;20134;-59
2023/07/19 00:09:58;;;;;;;0.82;0.65;;;;;;;23.93;43.46;100376.00;4514972;28;20036;-59
2023/07/19 00:12:08;;;;;;;1.00;0.80;;;;;;;23.92;43.72;100370.63;4514463;28;20587;-59
2023/07/19 00:14:19;;;;;;;1.00;0.88;;;;;;;23.86;43.15;100360.69;4515454;28;20437;-59
2023/07/19 00:16:29;;;;;;;0.88;0.60;;;;;;;23.94;43.48;100369.03;4517105;28;20028;-59
2023/07/19 00:18:40;;;;;;;0.75;0.70;;;;;;;23.87;43.13;100368.94;4516671;28;20037;-59
2023/07/19 00:20:50;;;;;;;0.80;0.70;;;;;;;23.95;42.60;100387.97;4515867;28;20107;-59
2023/07/19 00:23:01;;;;;;;0.80;0.60;;;;;;;23.94;43.40;100386.31;4515441;28;20037;-59
2023/07/19 00:25:11;;;;;;;0.98;0.70;;;;;;;23.88;43.35;100370.59;4515371;28;20592;-59
2023/07/19 00:27:22;;;;;;;0.70;0.70;;;;;;;23.94;42.86;100383.44;4513444;28;20356;-59
2023/07/19 00:29:32;;;;;;;0.82;0.70;;;;;;;23.93;43.01;100383.84;4513272;28;20048;-59
2023/07/19 00:31:43;;;;;;;1.13;0.70;;;;;;;23.87;43.49;100371.81;4516469;28;20034;-59
2023/07/19 00:33:54;;;;;;;0.95;0.70;;;;;;;23.91;43.85;100369.81;4515548;28;20881;-61
2023/07/19 00:36:04;;;;;;;0.70;0.70;;;;;;;23.91;43.30;100375.59;4513362;28;20081;-59
2023/07/19 00:38:15;;;;;;;1.33;0.70;;;;;;;23.90;43.24;100373.91;4515028;28;20839;-59
2023/07/19 00:40:25;;;;;;;1.13;0.80;;;;;;;23.80;43.44;100357.31;4515577;28;20120;-59
2023/07/19 00:42:36;;;;;;;0.95;0.70;;;;;;;23.92;43.37;100371.47;4514872;28;20160;-59
2023/07/19 00:44:46;;;;;;;1.02;0.80;;;;;;;23.89;43.28;100360.72;4498203;28;20053;-58
2023/07/19 00:47:02;;;;;;;1.40;0.77;;;;;;;23.87;42.98;100351.66;4514221;28;20028;-58
2023/07/19 00:49:13;;;;;;;0.82;0.70;;;;;;;23.91;43.01;100358.28;4516431;28;20048;-59
2023/07/19 00:51:24;;;;;;;0.80;0.70;;;;;;;23.90;43.32;100356.63;4503550;28;20042;-59
2023/07/19 00:53:36;;;;;;;1.17;0.80;;;;;;;23.90;43.31;100361.53;4515602;28;20046;-59
2023/07/19 00:55:50;;;;;;;0.68;0.68;;;;;;;23.92;43.46;100364.88;4495357;28;20029;-59
2023/07/19 00:58:01;;;;;;;0.88;0.70;;;;;;;23.90;43.36;100361.53;4514791;28;20037;-59
2023/07/19 01:00:12;;;;;;;0.70;0.70;;;;;;;23.89;42.43;100372.25;4513675;28;20080;-59
2023/07/19 01:02:23;;;;;;;0.82;0.70;;;;;;;23.86;42.84;100367.28;4514658;28;20037;-58
2023/07/19 01:04:34;;;;;;;1.05;0.70;;;;;;;23.90;43.09;100364.41;4515353;28;20437;-59
2023/07/19 01:06:46;;;;;;;1.60;0.80;;;;;;;23.91;43.23;100361.19;4519673;28;20033;-58
2023/07/19 01:08:56;;;;;;;0.70;0.70;;;;;;;23.90;43.01;100358.66;4530158;28;20424;-59
2023/07/19 01:11:06;;;;;;;1.02;0.88;;;;;;;23.85;43.33;100354.09;4513601;28;20756;-59
2023/07/19 01:13:17;;;;;;;0.90;0.70;;;;;;;23.89;43.13;100360.72;4514292;28;20120;-59
2023/07/19 01:15:27;;;;;;;1.10;0.82;;;;;;;23.89;42.77;100366.50;4514424;28;20045;-59
2023/07/19 01:17:38;;;;;;;2.08;0.93;;;;;;;23.88;42.87;100364.81;4514027;28;20049;-59
2023/07/19 01:19:48;;;;;;;0.93;0.75;;;;;;;23.86;42.66;100361.53;4514037;28;20041;-59
2023/07/19 01:21:59;;;;;;;0.95;0.70;;;;;;;23.88;42.55;100364.81;4515245;28;20029;-60
2023/07/19 01:24:10;;;;;;;0.98;0.88;;;;;;;23.86;42.31;100355.75;4516694;28;20044;-59
2023/07/19 01:26:20;;;;;;;0.70;0.68;;;;;;;23.87;43.13;100363.16;4515727;28;20083;-59
2023/07/19 01:28:31;;;;;;;0.95;0.70;;;;;;;23.81;42.96;100347.47;4516626;28;20490;-58
2023/07/19 01:30:41;;;;;;;0.85;0.80;;;;;;;23.86;42.94;100352.88;4515595;28;20033;-60
2023/07/19 01:32:51;;;;;;;0.77;0.70;;;;;;;23.88;42.70;100356.16;4516157;28;20049;-59
2023/07/19 01:35:02;;;;;;;0.70;0.68;;;;;;;23.86;43.22;100350.00;4516528;28;20541;-59
2023/07/19 01:37:13;;;;;;;0.70;0.70;;;;;;;23.83;42.99;100347.91;4504300;28;20097;-57
2023/07/19 01:39:24;;;;;;;0.70;0.70;;;;;;;23.86;43.28;100347.13;4513738;28;20056;-60
2023/07/19 01:41:34;;;;;;;1.27;0.88;;;;;;;23.87;43.33;100357.41;4518453;28;20053;-59
2023/07/19 01:43:45;;;;;;;0.70;0.70;;;;;;;23.87;43.21;100356.56;4533298;28;20037;-60
2023/07/19 01:45:57;;;;;;;0.93;0.80;;;;;;;23.81;43.24;100352.41;4519225;28;20055;-59
2023/07/19 01:48:08;;;;;;;0.82;0.80;;;;;;;23.85;43.38;100356.97;4518969;28;20051;-59
2023/07/19 01:50:18;;;;;;;1.15;0.80;;;;;;;23.86;43.10;100358.66;4517434;28;20045;-59
2023/07/19 01:52:29;;;;;;;0.88;0.82;;;;;;;23.80;42.88;100345.78;4516867;28;20044;-61
2023/07/19 01:54:42;;;;;;;0.70;0.70;;;;;;;23.85;43.19;100342.56;4517584;28;20073;-60
2023/07/19 01:56:52;;;;;;;1.00;0.85;;;;;;;23.84;43.15;100345.84;4517627;28;20235;-59
2023/07/19 01:59:03;;;;;;;0.82;0.70;;;;;;;23.86;42.98;100350.00;4517811;28;20041;-61
2023/07/19 02:01:15;;;;;;;1.33;0.80;;;;;;;23.84;43.04;100340.06;4507090;28;20750;-61
2023/07/19 02:03:25;;;;;;;1.13;0.93;;;;;;;23.86;43.03;100335.59;4519436;28;20080;-59
2023/07/19 02:05:36;;;;;;;1.02;0.80;;;;;;;23.81;42.90;100329.34;4519498;28;20355;-62
2023/07/19 02:07:47;;;;;;;0.73;0.73;;;;;;;23.84;43.00;100326.50;4517858;28;20521;-62
2023/07/19 02:09:58;;;;;;;1.13;0.73;;;;;;;23.86;42.58;100331.88;4506209;28;20030;-60
2023/07/19 02:12:09;;;;;;;1.05;0.80;;;;;;;23.83;42.84;100316.19;4517729;28;20108;-60
2023/07/19 02:14:20;;;;;;;1.00;0.90;;;;;;;23.83;43.10;100321.13;4514609;28;20060;-59
2023/07/19 02:16:30;;;;;;;0.77;0.70;;;;;;;23.85;42.78;100319.50;4499498;28;20037;-58
2023/07/19 02:18:41;;;;;;;0.70;0.70;;;;;;;23.85;43.08;100315.81;4518401;28;20041;-59
2023/07/19 02:20:53;;;;;;;1.00;0.90;;;;;;;23.80;42.86;100308.31;4517984;28;20107;-61
2023/07/19 02:23:04;;;;;;;0.75;0.70;;;;;;;23.83;43.24;100298.91;4514137;28;20025;-59
2023/07/19 02:25:14;;;;;;;0.75;0.70;;;;;;;23.83;42.92;100292.31;4516221;28;20037;-59
2023/07/19 02:27:25;;;;;;;1.13;0.80;;;;;;;23.64;43.29;100267.44;4517523;28;20473;-59
2023/07/19 02:29:35;;;;;;;2.05;0.90;;;;;;;23.81;42.63;100292.69;4517214;28;20054;-59
2023/07/19 02:31:47;;;;;;;0.95;0.73;;;;;;;23.81;42.94;100292.69;4518992;28;20168;-60
2023/07/19 02:33:57;;;;;;;0.90;0.90;;;;;;;23.80;43.37;100299.66;4515998;28;20046;-59
2023/07/19 02:36:11;;;;;;;1.02;0.90;;;;;;;23.82;42.93;100294.34;4517549;28;20048;-59
2023/07/19 02:38:25;;;;;;;1.00;0.80;;;;;;;23.79;43.06;100283.63;4516993;28;20038;-59
2023/07/19 02:40:37;;;;;;;0.77;0.77;;;;;;;23.82;43.10;100279.94;4505576;28;20030;-59
2023/07/19 02:42:47;;;;;;;1.08;0.80;;;;;;;23.82;43.43;100285.69;4515535;28;20037;-58
2023/07/19 02:45:00;;;;;;;1.10;0.80;;;;;;;23.77;43.20;100277.41;4518383;28;20069;-59
2023/07/19 02:47:12;;;;;;;1.15;0.70;;;;;;;23.79;42.70;100289.38;4514446;28;20105;-59
2023/07/19 02:49:23;;;;;;;0.98;0.88;;;;;;;23.75;43.25;100281.94;4516033;28;20052;-58
2023/07/19 02:51:35;;;;;;;0.82;0.70;;;;;;;23.79;43.02;100286.50;4515494;28;20041;-58
2023/07/19 02:53:45;;;;;;;0.70;0.70;;;;;;;23.82;43.07;100288.59;4515496;28;20517;-58
2023/07/19 02:55:56;;;;;;;1.65;0.90;;;;;;;23.78;43.02;100276.22;4516627;28;20279;-59
2023/07/19 02:58:06;;;;;;;0.77;0.70;;;;;;;23.73;43.38;100270.78;4516389;28;20029;-59
2023/07/19 03:00:17;;;;;;;0.60;0.60;;;;;;;23.78;43.39;100281.97;4517103;28;20407;-59
2023/07/19 03:02:27;;;;;;;1.10;0.90;;;;;;;23.79;43.40;100274.97;4516729;28;20421;-58
2023/07/19 03:04:37;;;;;;;1.05;0.80;;;;;;;23.76;43.41;100275.78;4515600;28;20060;-59
2023/07/19 03:06:48;;;;;;;1.10;0.57;;;;;;;23.77;43.40;100276.59;4518383;28;20037;-59
2023/07/19 03:08:59;;;;;;;1.75;0.80;;;;;;;23.77;43.63;100288.94;4517764;28;20033;-59
2023/07/19 03:11:10;;;;;;;0.75;0.68;;;;;;;23.74;43.49;100283.16;4518919;28;20038;-58
2023/07/19 03:13:20;;;;;;;1.35;0.70;;;;;;;23.75;43.57;100282.78;4517421;28;20053;-59
2023/07/19 03:15:33;;;;;;;0.85;0.70;;;;;;;23.79;43.22;100279.91;4518256;28;20051;-59
2023/07/19 03:17:43;;;;;;;0.60;0.60;;;;;;;23.77;43.21;100277.41;4516831;28;20599;-59
2023/07/19 03:19:54;;;;;;;0.68;0.68;;;;;;;23.75;43.33;100285.66;4516464;28;20041;-59
2023/07/19 03:22:04;;;;;;;1.05;0.60;;;;;;;23.77;43.18;100288.13;4517386;28;20041;-59
2023/07/19 03:24:15;;;;;;;0.80;0.70;;;;;;;23.77;43.01;100291.00;4516843;28;20056;-59
2023/07/19 03:26:25;;;;;;;0.95;0.70;;;;;;;23.80;43.67;100290.22;4516764;28;20072;-61
2023/07/19 03:28:36;;;;;;;0.85;0.70;;;;;;;23.76;43.28;100293.06;4517166;28;20545;-60
2023/07/19 03:30:47;;;;;;;0.57;0.57;;;;;;;23.79;43.45;100291.44;4515400;28;20602;-58
2023/07/19 03:32:57;;;;;;;1.13;0.90;;;;;;;23.74;43.53;100283.16;4515483;28;20045;-59
2023/07/19 03:35:08;;;;;;;0.57;0.57;;;;;;;23.74;43.48;100283.97;4511397;28;20468;-59
2023/07/19 03:37:19;;;;;;;0.80;0.70;;;;;;;23.76;43.02;100286.47;4498765;28;20061;-61
2023/07/19 03:39:29;;;;;;;1.33;0.60;;;;;;;23.77;43.13;100293.91;4517369;28;20101;-61
2023/07/19 03:41:41;;;;;;;2.65;0.80;;;;;;;23.78;43.49;100284.00;4517577;28;20030;-61
2023/07/19 03:43:51;;;;;;;0.80;0.80;;;;;;;23.69;43.56;100269.91;4514391;28;20033;-61
2023/07/19 03:46:03;;;;;;;0.85;0.70;;;;;;;23.69;43.67;100269.13;4532780;28;20067;-61
2023/07/19 03:48:14;;;;;;;0.80;0.63;;;;;;;23.72;43.54;100277.81;4505946;28;20034;-61
2023/07/19 03:50:25;;;;;;;1.17;0.80;;;;;;;23.76;43.54;100277.81;4505304;28;20030;-61
2023/07/19 03:52:35;;;;;;;0.70;0.52;;;;;;;23.77;43.49;100286.06;4513648;28;20049;-60
2023/07/19 03:54:46;;;;;;;0.80;0.70;;;;;;;23.74;43.50;100286.06;4515938;28;20477;-61
2023/07/19 03:56:56;;;;;;;0.75;0.63;;;;;;;23.75;43.94;100271.25;4515945;28;20033;-59
2023/07/19 03:59:07;;;;;;;1.02;0.85;;;;;;;23.75;43.82;100281.94;4514860;28;20037;-60
2023/07/19 04:01:18;;;;;;;0.88;0.77;;;;;;;23.73;43.72;100285.22;4515176;28;20072;-61
2023/07/19 04:03:28;;;;;;;0.70;0.70;;;;;;;23.77;43.96;100288.94;4516410;28;20041;-61
2023/07/19 04:05:39;;;;;;;0.70;0.70;;;;;;;23.74;43.63;100283.97;4505953;28;20037;-61
2023/07/19 04:07:49;;;;;;;0.82;0.70;;;;;;;23.75;43.90;100284.81;4516481;28;20853;-60
2023/07/19 04:10:01;;;;;;;0.60;0.60;;;;;;;23.73;43.85;100293.84;4517607;28;20623;-61
2023/07/19 04:12:12;;;;;;;1.05;0.95;;;;;;;23.75;43.73;100291.41;4512628;28;20560;-60
2023/07/19 04:14:23;;;;;;;0.82;0.80;;;;;;;23.74;43.69;100283.97;4515693;28;20037;-61
2023/07/19 04:16:34;;;;;;;1.00;0.73;;;;;;;23.76;43.65;100284.41;4499177;28;20033;-61
2023/07/19 04:18:44;;;;;;;1.08;0.80;;;;;;;23.74;43.29;100277.41;4514571;28;20540;-60
2023/07/19 04:20:56;;;;;;;0.80;0.70;;;;;;;23.75;43.67;100277.00;4515759;28;20479;-61
2023/07/19 04:23:07;;;;;;;0.98;0.80;;;;;;;23.68;43.52;100268.28;4523645;28;21598;-61
2023/07/19 04:25:20;;;;;;;0.80;0.70;;;;;;;23.70;43.69;100268.72;4514851;28;20275;-60
2023/07/19 04:27:31;;;;;;;0.68;0.68;;;;;;;23.75;43.61;100281.94;4531122;28;20083;-61
2023/07/19 04:29:41;;;;;;;0.70;0.70;;;;;;;23.69;43.60;100264.16;4514668;28;20095;-61
2023/07/19 04:31:52;;;;;;;1.23;0.75;;;;;;;23.75;43.20;100284.81;4515350;28;20052;-61
2023/07/19 04:34:02;;;;;;;0.73;0.60;;;;;;;23.74;43.61;100286.06;4516197;28;20561;-61
2023/07/19 04:36:14;;;;;;;0.70;0.70;;;;;;;23.74;43.58;100271.63;4515243;28;20049;-60
2023/07/19 04:38:26;;;;;;;1.10;0.82;;;;;;;23.73;43.83;100270.78;4505987;28;21186;-61
2023/07/19 04:40:37;;;;;;;1.10;0.80;;;;;;;23.59;43.82;100251.28;4516779;28;20038;-59
2023/07/19 04:42:49;;;;;;;1.08;0.85;;;;;;;23.73;44.06;100276.56;4515776;28;20048;-61
2023/07/19 04:45:00;;;;;;;1.05;0.80;;;;;;;23.74;44.22;100272.44;4521910;28;20032;-62
2023/07/19 04:47:10;;;;;;;0.90;0.70;;;;;;;23.64;43.93;100253.00;4515436;28;20112;-61
2023/07/19 04:49:21;;;;;;;0.80;0.80;;;;;;;23.72;44.01;100280.69;4515745;28;20038;-61
2023/07/19 04:51:31;;;;;;;1.20;0.80;;;;;;;23.73;44.06;100270.78;4515913;28;20532;-61
2023/07/19 04:53:42;;;;;;;1.13;0.80;;;;;;;23.73;43.96;100270.78;4516056;28;20809;-61
2023/07/19 04:55:54;;;;;;;1.50;0.88;;;;;;;23.74;44.07;100272.44;4515705;28;20036;-60
2023/07/19 04:58:07;;;;;;;0.85;0.80;;;;;;;23.73;44.58;100276.56;4515252;28;20647;-60
2023/07/19 05:00:19;;;;;;;1.00;0.90;;;;;;;23.70;43.97;100277.34;4513063;28;20029;-60
2023/07/19 05:02:29;;;;;;;0.90;0.88;;;;;;;23.73;44.42;100275.72;4514490;28;20369;-61
2023/07/19 05:04:40;;;;;;;0.82;0.80;;;;;;;23.69;44.69;100261.28;4515261;28;20084;-61
2023/07/19 05:06:51;;;;;;;0.73;0.70;;;;;;;23.67;44.43;100255.91;4517275;28;20038;-61
2023/07/19 05:09:03;;;;;;;1.00;0.85;;;;;;;23.67;44.54;100263.75;4515265;28;20029;-62
2023/07/19 05:11:14;;;;;;;1.00;0.90;;;;;;;23.71;45.05;100270.34;4514267;28;20095;-61
2023/07/19 05:13:24;;;;;;;1.50;0.90;;;;;;;23.71;44.75;100273.25;4515921;28;20045;-61
2023/07/19 05:15:35;;;;;;;1.48;0.80;;;;;;;23.67;44.77;100272.38;4513511;28;20068;-61
2023/07/19 05:17:46;;;;;;;1.15;1.00;;;;;;;23.72;45.40;100282.72;4532516;28;20029;-61
2023/07/19 05:19:57;;;;;;;0.88;0.80;;;;;;;23.71;45.15;100276.13;4513389;28;20457;-61
2023/07/19 05:22:07;;;;;;;1.73;0.90;;;;;;;23.70;45.52;100271.59;4514597;28;20041;-59
2023/07/19 05:24:18;;;;;;;0.90;0.80;;;;;;;23.71;45.44;100279.00;4516026;28;20037;-61
2023/07/19 05:26:29;;;;;;;0.90;0.80;;;;;;;23.71;45.40;100279.00;4514045;28;20120;-61
2023/07/19 05:28:39;;;;;;;1.13;0.70;;;;;;;23.70;45.32;100277.34;4516198;28;20552;-60
2023/07/19 05:30:51;;;;;;;0.88;0.80;;;;;;;23.71;45.40;100278.16;4515018;28;20689;-60
2023/07/19 05:33:01;;;;;;;0.80;0.80;;;;;;;23.65;45.11;100269.06;4515355;28;20101;-61
2023/07/19 05:35:11;;;;;;;0.95;0.85;;;;;;;23.71;45.50;100279.00;4515682;28;20038;-60
2023/07/19 05:37:22;;;;;;;0.98;0.90;;;;;;;23.70;45.45;100274.47;4514540;28;20456;-61
2023/07/19 05:39:35;;;;;;;1.00;0.90;;;;;;;23.69;45.39;100275.69;4516914;28;20165;-61
2023/07/19 05:41:46;;;;;;;1.17;0.93;;;;;;;23.70;45.36;100283.13;4516018;28;20533;-59
2023/07/19 05:43:57;;;;;;;1.00;0.90;;;;;;;23.71;45.67;100287.66;4514950;28;20064;-60
2023/07/19 05:46:10;;;;;;;1.20;0.90;;;;;;;23.70;45.71;100291.75;4515247;28;20044;-61
2023/07/19 05:48:21;;;;;;;0.70;0.70;;;;;;;23.69;45.67;100284.31;4515378;28;20386;-60
2023/07/19 05:50:31;;;;;;;1.10;1.00;;;;;;;23.70;45.52;100288.03;4514226;28;20041;-61
2023/07/19 05:52:42;;;;;;;1.13;0.80;;;;;;;23.69;45.25;100287.22;4515630;28;20129;-61
2023/07/19 05:54:52;;;;;;;1.20;0.90;;;;;;;23.67;45.14;100284.72;4516371;28;20048;-62
2023/07/19 05:57:03;;;;;;;1.13;0.90;;;;;;;23.71;45.14;100290.53;4516336;28;20038;-60
2023/07/19 05:59:13;;;;;;;1.27;0.80;;;;;;;23.67;44.69;100283.91;4516162;28;20689;-60
2023/07/19 06:01:24;;;;;;;0.98;0.88;;;;;;;23.69;44.57;100287.22;4515312;28;20025;-60
2023/07/19 06:03:34;;;;;;;0.80;0.80;;;;;;;23.69;44.93;100278.56;4514665;28;20041;-61
2023/07/19 06:05:45;;;;;;;1.20;0.90;;;;;;;23.70;44.97;100288.88;4515791;28;20347;-60
2023/07/19 06:07:56;;;;;;;1.58;0.85;;;;;;;23.67;44.78;100281.84;4515477;28;21314;-61
2023/07/19 06:10:06;;;;;;;0.68;0.68;;;;;;;23.71;45.13;100295.47;4514526;28;20482;-60
2023/07/19 06:12:17;;;;;;;1.20;1.00;;;;;;;23.72;44.28;100295.09;4515927;28;20270;-60
2023/07/19 06:14:27;;;;;;;1.05;0.95;;;;;;;23.72;44.46;100302.91;4514960;28;20099;-61
2023/07/19 06:16:39;;;;;;;1.10;1.00;;;;;;;23.71;44.77;100302.06;4514995;28;20049;-61
2023/07/19 06:18:49;;;;;;;1.25;0.82;;;;;;;23.69;44.41;100298.72;4515820;28;20152;-60
2023/07/19 06:21:00;;;;;;;0.90;0.80;;;;;;;23.70;44.77;100291.75;4514133;28;20037;-60
2023/07/19 06:23:10;;;;;;;1.48;1.02;;;;;;;23.73;44.77;100299.63;4514348;28;20059;-61
2023/07/19 06:25:21;;;;;;;0.98;0.90;;;;;;;23.71;45.15;100301.22;4515867;28;20037;-61
2023/07/19 06:27:31;;;;;;;1.10;1.00;;;;;;;23.70;44.85;100306.19;4518166;28;20397;-61
2023/07/19 06:29:45;;;;;;;1.25;0.90;;;;;;;23.73;44.65;100301.66;4474718;28;21458;-60
2023/07/19 06:31:55;;;;;;;1.13;0.98;;;;;;;23.72;44.49;100308.66;4508124;28;20611;-60
2023/07/19 06:34:06;;;;;;;1.00;0.70;;;;;;;23.72;44.98;100302.91;4520727;28;20076;-60
2023/07/19 06:36:16;;;;;;;1.30;1.00;;;;;;;23.71;44.91;100296.28;4519789;28;20037;-63
2023/07/19 06:38:28;;;;;;;1.15;0.90;;;;;;;23.72;44.73;100303.75;4517500;28;20125;-64
2023/07/19 06:40:38;;;;;;;1.27;0.85;;;;;;;23.72;44.75;100294.25;4518207;28;20042;-60
2023/07/19 06:42:48;;;;;;;1.35;0.93;;;;;;;23.71;44.69;100299.19;4518098;28;20046;-60
2023/07/19 06:44:59;;;;;;;1.13;0.90;;;;;;;23.69;44.52;100298.72;4518570;28;20037;-61
2023/07/19 06:47:09;;;;;;;1.60;0.95;;;;;;;23.71;44.22;100301.22;4517128;28;20108;-59
2023/07/19 06:49:20;;;;;;;1.30;0.95;;;;;;;23.70;43.84;100311.09;4518588;28;20504;-60
2023/07/19 06:51:30;;;;;;;1.48;0.93;;;;;;;23.66;43.89;100302.41;4509733;28;20049;-60
2023/07/19 06:53:41;;;;;;;1.63;0.90;;;;;;;23.70;43.63;100311.94;4519083;28;20486;-60
2023/07/19 06:55:53;;;;;;;1.50;0.80;;;;;;;23.65;43.12;100306.53;4516247;28;20088;-60
2023/07/19 06:58:04;;;;;;;1.23;0.90;;;;;;;23.71;43.00;100315.63;4517608;28;20034;-60
2023/07/19 07:00:15;;;;;;;1.35;1.00;;;;;;;23.67;43.42;100307.78;4517930;28;20034;-60
2023/07/19 07:02:25;;;;;;;1.48;0.93;;;;;;;23.67;43.56;100309.00;4516866;28;20037;-60
2023/07/19 07:04:36;;;;;;;1.10;1.00;;;;;;;23.69;43.71;100316.03;4518127;28;20049;-60
2023/07/19 07:06:46;;;;;;;1.15;1.00;;;;;;;23.68;43.72;100317.25;4517535;28;20061;-60
2023/07/19 07:08:56;;;;;;;1.63;1.05;;;;;;;23.67;43.86;100313.53;4518786;28;20045;-60
2023/07/19 07:11:07;;;;;;;1.40;1.00;;;;;;;23.69;43.78;100316.03;4517402;28;20534;-60
2023/07/19 07:13:17;;;;;;;1.42;1.00;;;;;;;23.64;43.94;100313.53;4517430;28;20041;-60
2023/07/19 07:15:28;;;;;;;1.23;0.82;;;;;;;23.64;44.31;100307.75;4515702;28;20034;-60
2023/07/19 07:17:39;;;;;;;1.58;1.02;;;;;;;23.65;44.36;100309.41;4517069;28;20044;-60
2023/07/19 07:19:49;;;;;;;1.95;1.08;;;;;;;23.67;44.34;100316.41;4516861;28;20038;-60
2023/07/19 07:22:00;;;;;;;1.30;1.13;;;;;;;23.63;44.66;100306.94;4517238;28;20085;-60
2023/07/19 07:24:10;;;;;;;1.20;0.88;;;;;;;23.64;44.19;100314.34;4516539;28;20017;-60
2023/07/19 07:26:21;;;;;;;1.30;0.90;;;;;;;23.63;43.89;100311.03;4518164;28;20088;-60
2023/07/19 07:28:31;;;;;;;1.27;0.93;;;;;;;23.68;43.79;100320.16;4517630;28;20379;-60
2023/07/19 07:30:42;;;;;;;1.40;0.90;;;;;;;23.66;44.32;100318.91;4516858;28;20040;-61
2023/07/19 07:32:52;;;;;;;1.27;0.77;;;;;;;23.67;44.40;100324.25;4518906;28;20512;-60
2023/07/19 07:35:06;;;;;;;1.55;1.10;;;;;;;23.64;44.43;100319.28;4516925;28;20438;-61
2023/07/19 07:37:17;;;;;;;0.75;0.75;;;;;;;23.67;44.04;100325.06;4517517;28;20079;-61
2023/07/19 07:39:28;;;;;;;0.80;0.80;;;;;;;23.69;44.17;100327.56;4518623;28;20824;-59
2023/07/19 07:41:39;;;;;;;1.35;0.85;;;;;;;23.59;44.02;100311.00;4518715;28;20036;-59
2023/07/19 07:43:50;;;;;;;1.17;0.88;;;;;;;23.65;44.59;100315.16;4517437;28;20444;-59
2023/07/19 07:46:00;;;;;;;0.80;0.80;;;;;;;23.69;44.68;100329.63;4517610;28;20425;-59
2023/07/19 07:48:11;;;;;;;0.70;0.70;;;;;;;23.64;44.20;100319.28;4516993;28;20048;-60
2023/07/19 07:50:22;;;;;;;1.45;0.95;;;;;;;23.68;44.34;100325.91;4517966;28;20026;-60
2023/07/19 07:52:32;;;;;;;1.02;0.80;;;;;;;23.70;43.91;100329.22;4519302;28;20037;-60
2023/07/19 07:54:44;;;;;;;1.15;0.90;;;;;;;23.63;44.16;100312.69;4517291;28;20456;-61
2023/07/19 07:56:54;;;;;;;0.90;0.80;;;;;;;23.70;44.53;100314.81;4516457;28;20040;-60
2023/07/19 07:59:05;;;;;;;0.90;0.80;;;;;;;23.71;45.15;100322.22;4516839;28;20040;-60
2023/07/19 08:01:15;;;;;;;0.70;0.70;;;;;;;23.70;44.91;100316.88;4516602;28;20711;-60
2023/07/19 08:03:26;;;;;;;1.10;0.80;;;;;;;23.65;45.25;100312.28;4517332;28;20037;-60
2023/07/19 08:05:40;;;;;;;1.25;1.13;;;;;;;23.63;44.50;100311.84;4517793;28;20072;-63
2023/07/19 08:07:50;;;;;;;1.42;0.95;;;;;;;23.64;43.80;100304.88;4516508;28;20029;-60
2023/07/19 08:10:01;;;;;;;1.42;0.80;;;;;;;23.65;44.32;100309.41;4517887;28;20413;-63
2023/07/19 08:12:13;;;;;;;2.20;1.10;;;;;;;23.63;44.54;100311.84;4515820;28;20017;-60
2023/07/19 08:14:24;;;;;;;1.50;0.90;;;;;;;23.69;44.91;100332.50;4516605;28;20158;-60
2023/07/19 08:16:34;;;;;;;1.90;1.10;;;;;;;23.65;44.58;100323.81;4516420;28;20091;-60
2023/07/19 08:18:45;;;;;;;1.13;0.90;;;;;;;23.67;44.38;100329.19;4517761;28;20653;-60
2023/07/19 08:20:55;;;;;;;1.20;1.08;;;;;;;23.67;44.21;100330.03;4516123;28;20033;-61
2023/07/19 08:23:06;;;;;;;1.52;1.00;;;;;;;23.69;43.95;100332.50;4515785;28;20544;-59
2023/07/19 08:25:18;;;;;;;1.75;1.27;;;;;;;23.66;43.97;100327.53;4518144;28;20048;-61
2023/07/19 08:27:29;;;;;;;2.15;1.10;;;;;;;23.68;43.98;100328.78;4505348;28;20029;-60
2023/07/19 08:29:39;;;;;;;1.63;1.20;;;;;;;23.68;43.86;100331.66;4517355;28;20086;-60
2023/07/19 08:31:49;;;;;;;1.52;0.93;;;;;;;23.67;44.27;100330.03;4514172;28;20813;-60
2023/07/19 08:34:00;;;;;;;1.30;0.80;;;;;;;23.69;44.42;100327.56;4516189;28;20154;-60
2023/07/19 08:36:10;;;;;;;2.53;1.10;;;;;;;23.70;44.75;100319.75;4516929;28;20041;-60
2023/07/19 08:38:21;;;;;;;0.98;0.90;;;;;;;23.70;44.95;100325.50;4517533;28;20033;-60
2023/07/19 08:40:38;;;;;;;1.27;0.90;;;;;;;23.67;44.50;100322.19;4516817;28;20768;-60
2023/07/19 08:42:49;;;;;;;1.05;0.90;;;;;;;23.69;44.37;100324.66;4499204;28;20021;-60
2023/07/19 08:44:59;;;;;;;2.25;1.27;;;;;;;23.69;44.58;100326.75;4515560;28;20037;-60
2023/07/19 08:47:12;;;;;;;2.20;1.13;;;;;;;23.69;44.79;100321.78;4517127;28;20044;-60
2023/07/19 08:49:23;;;;;;;1.98;1.20;;;;;;;23.64;44.41;100313.53;4516927;28;20044;-60
2023/07/19 08:51:34;;;;;;;1.67;1.13;;;;;;;23.70;45.00;100323.47;4516430;28;20039;-60
2023/07/19 08:53:45;;;;;;;1.17;1.00;;;;;;;23.70;45.17;100322.63;4516791;28;20489;-60
2023/07/19 08:55:57;;;;;;;1.33;1.10;;;;;;;23.68;45.81;100320.16;4516592;28;20029;-61
2023/07/19 08:58:07;;;;;;;1.67;1.05;;;;;;;23.68;45.49;100320.16;4515980;28;20096;-61
2023/07/19 09:00:19;;;;;;;1.58;1.10;;;;;;;23.70;45.44;100326.34;4515660;28;20042;-61
2023/07/19 09:02:30;;;;;;;1.63;1.10;;;;;;;23.69;45.25;100318.09;4514991;28;20042;-61
2023/07/19 09:05:00;;;;;;;2.03;1.10;;;;;;;23.69;45.41;100320.97;4515581;28;20573;-60
2023/07/19 09:07:12;;;;;;;1.35;0.85;;;;;;;23.63;46.30;100318.44;4515074;28;20044;-61
2023/07/19 09:09:22;;;;;;;1.30;1.10;;;;;;;23.71;46.00;100324.28;4516070;28;20136;-60
2023/07/19 09:11:32;;;;;;;2.83;1.20;;;;;;;23.70;46.16;100323.47;4515563;28;20089;-60
2023/07/19 09:13:50;;;;;;;0.88;0.80;;;;;;;23.59;46.13;100311.00;4515013;28;20475;-60
2023/07/19 09:16:03;;;;;;;2.03;1.00;;;;;;;23.70;46.37;100326.34;4515739;28;20110;-60
2023/07/19 09:18:14;;;;;;;1.73;0.98;;;;;;;23.69;47.37;100321.78;4515168;28;20683;-60
2023/07/19 09:20:27;;;;;;;1.55;0.95;;;;;;;23.72;46.75;100331.72;4504647;28;20217;-60
2023/07/19 09:22:38;;;;;;;1.35;1.10;;;;;;;23.67;46.72;100320.53;4515304;28;20041;-61
2023/07/19 09:24:54;;;;;;;1.27;0.98;;;;;;;23.72;47.12;100325.94;4517257;28;20044;-60
2023/07/19 09:27:05;;;;;;;0.83;0.83;;;;;;;23.72;46.78;100329.66;4514731;28;20559;-61
2023/07/19 09:29:15;;;;;;;1.98;1.00;;;;;;;23.70;46.90;100316.88;4515533;28;21002;-60
2023/07/19 09:31:26;;;;;;;1.08;0.75;;;;;;;23.71;46.80;100316.47;4515457;28;20053;-61
2023/07/19 09:33:36;;;;;;;1.23;0.82;;;;;;;23.73;47.55;100322.66;4516553;28;20486;-60
2023/07/19 09:35:53;;;;;;;0.73;0.70;;;;;;;23.67;47.27;100315.63;4516277;28;20216;-60
2023/07/19 09:38:04;;;;;;;1.58;0.98;;;;;;;23.73;47.33;100316.91;4529932;28;20095;-61
2023/07/19 09:40:14;;;;;;;1.20;0.93;;;;;;;23.68;47.65;100302.84;4513954;28;20121;-60
2023/07/19 09:42:25;;;;;;;1.35;0.80;;;;;;;23.73;47.51;100311.16;4512370;28;20413;-61
2023/07/19 09:44:36;;;;;;;0.98;0.60;;;;;;;23.72;47.47;100312.38;4516511;28;20060;-60
2023/07/19 09:46:47;;;;;;;0.95;0.80;;;;;;;23.72;47.44;100302.91;4502996;28;20168;-57
2023/07/19 09:48:58;;;;;;;1.92;0.80;;;;;;;23.73;47.37;100304.53;4503140;28;20400;-58
2023/07/19 09:51:08;;;;;;;1.50;0.95;;;;;;;23.69;46.80;100304.50;4516152;28;20924;-58
2023/07/19 09:53:24;;;;;;;1.00;0.70;;;;;;;23.72;46.71;100303.75;4514985;28;20049;-58
2023/07/19 09:55:35;;;;;;;1.20;0.82;;;;;;;23.71;47.12;100304.94;4515295;28;20033;-59
2023/07/19 09:57:48;;;;;;;0.80;0.77;;;;;;;23.68;46.81;100299.97;4514090;28;20109;-60
2023/07/19 09:59:59;;;;;;;1.05;0.80;;;;;;;23.68;46.45;100297.09;4516392;28;20038;-58
2023/07/19 10:02:11;;;;;;;1.48;0.90;;;;;;;23.64;46.27;100296.25;4518113;28;20058;-58
2023/07/19 10:04:29;;;;;;;1.10;0.70;;;;;;;23.66;46.51;100293.75;4519657;28;20037;-57
2023/07/19 10:06:40;;;;;;;1.17;0.77;;;;;;;23.67;46.73;100303.25;4519150;28;20154;-57
2023/07/19 10:09:22;;;;;;;1.02;0.70;;;;;;;23.66;47.21;100305.28;4515243;28;20338;-59